sensor_id;sensor_type;location;lat;lon;timestamp;pressure;altitude;pressure_sealevel;temperature;humidity
22862;BME280;11598;50.652;6.172;2022-07-22T00:05:20;97002.13;;;13.81;100.00
22862;BME280;11598;50.652;6.172;2022-07-22T00:15:21;97005.00;;;13.78;100.00
22862;BME280;11598;50.652;6.172;2022-07-22T00:25:22;97003.22;;;13.79;100.00
22862;BME280;11598;50.652;6.172;2022-07-22T00:35:22;96985.41;;;13.72;100.00
22862;BME280;11598;50.652;6.172;2022-07-22T00:45:23;96992.16;;;13.64;100.00
22862;BME280;11598;50.652;6.172;2022-07-22T00:55:23;96977.72;;;13.60;100.00
22862;BME280;11598;50.652;6.172;2022-07-22T01:05:24;96976.66;;;13.51;100.00
22862;BME280;11598;50.652;6.172;2022-07-22T01:15:24;96974.75;;;13.42;100.00
22862;BME280;11598;50.652;6.172;2022-07-22T01:25:24;96971.63;;;13.25;100.00
22862;BME280;11598;50.652;6.172;2022-07-22T01:35:26;96975.91;;;13.15;100.00
22862;BME280;11598;50.652;6.172;2022-07-22T01:45:26;96964.75;;;13.13;100.00
22862;BME280;11598;50.652;6.172;2022-07-22T01:55:27;96968.28;;;13.12;100.00
22862;BME280;11598;50.652;6.172;2022-07-22T02:05:27;96966.75;;;13.09;100.00
22862;BME280;11598;50.652;6.172;2022-07-22T02:15:29;96968.06;;;13.04;100.00
22862;BME280;11598;50.652;6.172;2022-07-22T02:25:29;96959.03;;;12.97;100.00
22862;BME280;11598;50.652;6.172;2022-07-22T02:35:29;96953.56;;;12.88;100.00
22862;BME280;11598;50.652;6.172;2022-07-22T02:45:30;96947.75;;;12.85;100.00
22862;BME280;11598;50.652;6.172;2022-07-22T02:55:30;96950.72;;;12.80;100.00
22862;BME280;11598;50.652;6.172;2022-07-22T03:05:31;96937.41;;;12.72;100.00
22862;BME280;11598;50.652;6.172;2022-07-22T03:15:31;96938.00;;;12.64;100.00
22862;BME280;11598;50.652;6.172;2022-07-22T03:25:31;96933.38;;;12.57;100.00
22862;BME280;11598;50.652;6.172;2022-07-22T03:35:32;96928.03;;;12.58;100.00
22862;BME280;11598;50.652;6.172;2022-07-22T03:45:32;96925.88;;;12.52;100.00
22862;BME280;11598;50.652;6.172;2022-07-22T03:55:33;96914.03;;;12.48;100.00
22862;BME280;11598;50.652;6.172;2022-07-22T04:05:33;96932.41;;;12.46;100.00
22862;BME280;11598;50.652;6.172;2022-07-22T04:15:34;96937.28;;;12.51;100.00
22862;BME280;11598;50.652;6.172;2022-07-22T04:25:34;96944.50;;;12.59;100.00
22862;BME280;11598;50.652;6.172;2022-07-22T04:35:34;96930.75;;;12.57;100.00
22862;BME280;11598;50.652;6.172;2022-07-22T04:45:35;96926.50;;;12.67;100.00
22862;BME280;11598;50.652;6.172;2022-07-22T04:55:35;96933.41;;;12.68;100.00
22862;BME280;11598;50.652;6.172;2022-07-22T05:05:36;96928.16;;;12.57;100.00
22862;BME280;11598;50.652;6.172;2022-07-22T05:15:36;96934.66;;;12.51;100.00
22862;BME280;11598;50.652;6.172;2022-07-22T05:25:37;96931.50;;;12.70;100.00
22862;BME280;11598;50.652;6.172;2022-07-22T05:35:37;96919.06;;;12.85;100.00
22862;BME280;11598;50.652;6.172;2022-07-22T05:45:37;96926.06;;;12.84;100.00
22862;BME280;11598;50.652;6.172;2022-07-22T05:55:38;96927.97;;;13.05;100.00
22862;BME280;11598;50.652;6.172;2022-07-22T06:05:38;96912.91;;;12.97;100.00
22862;BME280;11598;50.652;6.172;2022-07-22T06:15:39;96918.72;;;13.23;100.00
22862;BME280;11598;50.652;6.172;2022-07-22T06:25:39;96908.31;;;13.46;100.00
22862;BME280;11598;50.652;6.172;2022-07-22T06:35:40;96914.34;;;13.58;100.00
22862;BME280;11598;50.652;6.172;2022-07-22T06:45:41;96922.34;;;13.88;100.00
22862;BME280;11598;50.652;6.172;2022-07-22T06:55:41;96910.81;;;14.23;100.00
22862;BME280;11598;50.652;6.172;2022-07-22T07:05:41;96907.38;;;14.44;99.59
22862;BME280;11598;50.652;6.172;2022-07-22T07:15:42;96909.00;;;14.77;98.96
22862;BME280;11598;50.652;6.172;2022-07-22T07:25:42;96904.75;;;15.07;97.44
22862;BME280;11598;50.652;6.172;2022-07-22T07:35:43;96909.41;;;16.62;93.16
22862;BME280;11598;50.652;6.172;2022-07-22T07:45:43;96903.75;;;16.47;88.15
22862;BME280;11598;50.652;6.172;2022-07-22T07:55:44;96908.44;;;16.63;88.13
22862;BME280;11598;50.652;6.172;2022-07-22T08:05:44;96904.28;;;16.70;89.12
22862;BME280;11598;50.652;6.172;2022-07-22T08:15:44;96890.78;;;17.67;82.34
22862;BME280;11598;50.652;6.172;2022-07-22T08:25:45;96901.53;;;18.02;78.76
22862;BME280;11598;50.652;6.172;2022-07-22T08:35:45;96910.34;;;19.33;74.45
22862;BME280;11598;50.652;6.172;2022-07-22T08:45:46;96907.25;;;19.03;74.04
22862;BME280;11598;50.652;6.172;2022-07-22T08:55:48;96895.56;;;18.17;73.87
22862;BME280;11598;50.652;6.172;2022-07-22T09:05:50;96897.47;;;18.07;74.70
22862;BME280;11598;50.652;6.172;2022-07-22T09:15:54;96890.69;;;18.05;73.56
22862;BME280;11598;50.652;6.172;2022-07-22T09:25:55;96890.25;;;18.09;74.98
22862;BME280;11598;50.652;6.172;2022-07-22T09:36:03;96876.91;;;18.47;73.54
22862;BME280;11598;50.652;6.172;2022-07-22T09:46:04;96861.69;;;18.58;74.08
22862;BME280;11598;50.652;6.172;2022-07-22T09:56:06;96869.03;;;18.99;73.34
22862;BME280;11598;50.652;6.172;2022-07-22T10:06:07;96856.94;;;19.14;72.15
22862;BME280;11598;50.652;6.172;2022-07-22T10:16:07;96857.22;;;19.46;70.70
22862;BME280;11598;50.652;6.172;2022-07-22T10:26:08;96851.56;;;19.32;70.21
22862;BME280;11598;50.652;6.172;2022-07-22T10:36:09;96859.81;;;19.37;70.25
22862;BME280;11598;50.652;6.172;2022-07-22T10:46:10;96857.38;;;19.36;70.97
22862;BME280;11598;50.652;6.172;2022-07-22T10:56:17;96854.41;;;19.39;70.80
22862;BME280;11598;50.652;6.172;2022-07-22T11:16:22;96838.84;;;19.70;70.58
22862;BME280;11598;50.652;6.172;2022-07-22T11:26:42;96823.75;;;19.97;68.77
22862;BME280;11598;50.652;6.172;2022-07-22T11:36:45;96829.03;;;20.13;67.87
22862;BME280;11598;50.652;6.172;2022-07-22T11:46:46;96818.78;;;20.43;67.89
22862;BME280;11598;50.652;6.172;2022-07-22T11:56:46;96814.47;;;20.50;66.69
22862;BME280;11598;50.652;6.172;2022-07-22T12:06:48;96802.78;;;20.61;66.89
22862;BME280;11598;50.652;6.172;2022-07-22T12:17:00;96797.34;;;21.02;66.88
22862;BME280;11598;50.652;6.172;2022-07-22T12:37:20;96769.88;;;21.19;66.38
22862;BME280;11598;50.652;6.172;2022-07-22T12:47:51;96782.00;;;21.05;66.07
22862;BME280;11598;50.652;6.172;2022-07-22T12:57:53;96774.59;;;21.01;66.20
22862;BME280;11598;50.652;6.172;2022-07-22T13:07:54;96770.28;;;21.08;66.02
22862;BME280;11598;50.652;6.172;2022-07-22T13:17:54;96758.03;;;21.07;66.71
22862;BME280;11598;50.652;6.172;2022-07-22T13:27:55;96775.03;;;21.13;66.34
22862;BME280;11598;50.652;6.172;2022-07-22T13:37:55;96768.00;;;21.28;66.49
22862;BME280;11598;50.652;6.172;2022-07-22T13:47:57;96761.97;;;21.50;64.99
22862;BME280;11598;50.652;6.172;2022-07-22T13:57:57;96752.13;;;21.82;64.37
22862;BME280;11598;50.652;6.172;2022-07-22T14:07:58;96746.97;;;21.66;63.78
22862;BME280;11598;50.652;6.172;2022-07-22T14:17:58;96748.47;;;21.45;63.89
22862;BME280;11598;50.652;6.172;2022-07-22T14:27:58;96744.72;;;21.31;64.71
22862;BME280;11598;50.652;6.172;2022-07-22T14:37:59;96756.59;;;21.59;63.93
22862;BME280;11598;50.652;6.172;2022-07-22T14:47:59;96744.34;;;21.43;63.91
22862;BME280;11598;50.652;6.172;2022-07-22T14:57:59;96727.72;;;21.26;64.99
22862;BME280;11598;50.652;6.172;2022-07-22T15:08:00;96733.00;;;21.26;64.04
22862;BME280;11598;50.652;6.172;2022-07-22T15:18:00;96712.19;;;21.31;63.86
22862;BME280;11598;50.652;6.172;2022-07-22T15:28:00;96701.59;;;21.08;64.80
22862;BME280;11598;50.652;6.172;2022-07-22T15:38:01;96687.59;;;20.99;64.54
22862;BME280;11598;50.652;6.172;2022-07-22T15:48:02;96687.16;;;20.87;64.74
22862;BME280;11598;50.652;6.172;2022-07-22T15:58:03;96690.81;;;20.78;65.27
22862;BME280;11598;50.652;6.172;2022-07-22T16:08:22;96694.06;;;20.57;65.62
22862;BME280;11598;50.652;6.172;2022-07-22T16:18:23;96702.63;;;20.51;65.99
22862;BME280;11598;50.652;6.172;2022-07-22T16:28:23;96687.69;;;20.35;66.55
22862;BME280;11598;50.652;6.172;2022-07-22T16:38:23;96683.88;;;20.38;66.96
22862;BME280;11598;50.652;6.172;2022-07-22T16:48:24;96690.66;;;20.32;66.21
22862;BME280;11598;50.652;6.172;2022-07-22T16:58:24;96678.84;;;20.12;66.62
22862;BME280;11598;50.652;6.172;2022-07-22T17:08:24;96682.78;;;20.08;67.59
22862;BME280;11598;50.652;6.172;2022-07-22T17:18:25;96686.97;;;19.85;67.62
22862;BME280;11598;50.652;6.172;2022-07-22T17:28:27;96687.13;;;19.59;68.28
22862;BME280;11598;50.652;6.172;2022-07-22T17:38:27;96665.22;;;19.42;68.49
22862;BME280;11598;50.652;6.172;2022-07-22T17:48:28;96670.28;;;19.28;69.25
22862;BME280;11598;50.652;6.172;2022-07-22T17:58:28;96664.69;;;19.22;69.50
22862;BME280;11598;50.652;6.172;2022-07-22T18:08:28;96660.03;;;19.00;70.12
22862;BME280;11598;50.652;6.172;2022-07-22T18:18:29;96656.25;;;18.86;70.22
22862;BME280;11598;50.652;6.172;2022-07-22T18:28:30;96663.59;;;18.74;71.30
22862;BME280;11598;50.652;6.172;2022-07-22T18:38:30;96669.91;;;18.55;71.23
22862;BME280;11598;50.652;6.172;2022-07-22T18:48:31;96657.00;;;18.36;72.17
22862;BME280;11598;50.652;6.172;2022-07-22T18:58:31;96661.06;;;18.22;72.36
22862;BME280;11598;50.652;6.172;2022-07-22T19:08:32;96661.34;;;18.11;72.96
22862;BME280;11598;50.652;6.172;2022-07-22T19:18:32;96657.78;;;17.94;73.46
22862;BME280;11598;50.652;6.172;2022-07-22T19:28:33;96676.59;;;17.81;73.43
22862;BME280;11598;50.652;6.172;2022-07-22T19:38:34;96682.53;;;17.65;73.84
22862;BME280;11598;50.652;6.172;2022-07-22T19:48:34;96685.25;;;17.56;74.32
22862;BME280;11598;50.652;6.172;2022-07-22T19:58:35;96678.59;;;17.43;74.71
22862;BME280;11598;50.652;6.172;2022-07-22T20:08:36;96675.66;;;17.28;75.39
22862;BME280;11598;50.652;6.172;2022-07-22T20:18:36;96671.09;;;17.13;76.26
22862;BME280;11598;50.652;6.172;2022-07-22T20:28:37;96659.75;;;16.94;76.62
22862;BME280;11598;50.652;6.172;2022-07-22T20:38:37;96671.72;;;16.79;76.89
22862;BME280;11598;50.652;6.172;2022-07-22T20:48:38;96676.03;;;16.70;77.92
22862;BME280;11598;50.652;6.172;2022-07-22T20:58:38;96671.06;;;16.67;77.74
22862;BME280;11598;50.652;6.172;2022-07-22T21:08:39;96658.13;;;16.65;78.03
22862;BME280;11598;50.652;6.172;2022-07-22T21:18:39;96679.09;;;16.65;78.34
22862;BME280;11598;50.652;6.172;2022-07-22T21:28:39;96689.59;;;16.65;78.17
22862;BME280;11598;50.652;6.172;2022-07-22T21:38:40;96727.28;;;16.64;78.43
22862;BME280;11598;50.652;6.172;2022-07-22T21:48:40;96765.72;;;16.56;79.86
22862;BME280;11598;50.652;6.172;2022-07-22T21:58:40;96743.78;;;16.47;80.25
22862;BME280;11598;50.652;6.172;2022-07-22T22:08:41;96725.22;;;16.31;81.02
22862;BME280;11598;50.652;6.172;2022-07-22T22:18:41;96712.41;;;16.18;81.94
22862;BME280;11598;50.652;6.172;2022-07-22T22:28:41;96700.88;;;16.01;83.17
22862;BME280;11598;50.652;6.172;2022-07-22T22:38:42;96708.22;;;15.88;83.94
22862;BME280;11598;50.652;6.172;2022-07-22T22:48:42;96696.66;;;15.80;84.97
22862;BME280;11598;50.652;6.172;2022-07-22T22:58:43;96705.88;;;15.75;85.39
22862;BME280;11598;50.652;6.172;2022-07-22T23:08:43;96703.94;;;15.67;86.42
22862;BME280;11598;50.652;6.172;2022-07-22T23:18:43;96699.25;;;15.61;86.49
22862;BME280;11598;50.652;6.172;2022-07-22T23:28:45;96695.97;;;15.49;87.00
22862;BME280;11598;50.652;6.172;2022-07-22T23:38:45;96703.53;;;15.42;88.15
22862;BME280;11598;50.652;6.172;2022-07-22T23:48:46;96699.97;;;15.43;88.58
22862;BME280;11598;50.652;6.172;2022-07-22T23:58:46;96693.75;;;15.35;89.26
